createdAt,value
2022-09-28T00:01:22.857Z,39.03
2022-09-28T00:03:52.216Z,40.15
2022-09-28T00:06:22.301Z,41.42
2022-09-28T00:08:50.407Z,40.40
2022-09-28T00:11:20.142Z,41.17
2022-09-28T00:13:52.441Z,40.72
2022-09-28T00:16:22.552Z,40.75
2022-09-28T00:18:51.346Z,44.80
2022-09-28T00:21:22.233Z,40.97
2022-09-28T00:24:15.675Z,55.22
2022-09-28T00:26:52.759Z,45.10
2022-09-28T00:29:28.337Z,42.42
2022-09-28T00:32:00.180Z,42.42
2022-09-28T00:34:32.248Z,41.78
2022-09-28T00:37:00.610Z,43.40
2022-09-28T00:39:28.058Z,41.50
2022-09-28T00:41:56.101Z,41.67
2022-09-28T00:44:26.483Z,46.72
2022-09-28T00:47:19.913Z,45.83
2022-09-28T00:50:33.760Z,47.22
2022-09-28T00:53:12.013Z,53.03
2022-09-28T00:55:43.941Z,46.42
2022-09-28T00:58:14.168Z,44.08
2022-09-28T01:00:41.996Z,46.38
2022-09-28T01:03:10.311Z,42.58
2022-09-28T01:05:47.191Z,43.00
2022-09-28T01:08:15.543Z,42.03
2022-09-28T01:10:46.307Z,41.83
2022-09-28T01:13:14.260Z,94.13
2022-09-28T01:15:51.236Z,47.10
2022-09-28T01:18:44.593Z,44.78
2022-09-28T01:21:17.511Z,51.90
2022-09-28T01:24:03.152Z,55.53
2022-09-28T01:26:49.460Z,42.65
2022-09-28T01:29:22.670Z,43.53
2022-09-28T01:31:58.834Z,42.75
2022-09-28T01:34:34.701Z,41.22
2022-09-28T01:37:05.342Z,45.72
2022-09-28T01:39:45.847Z,44.30
2022-09-28T01:42:19.177Z,43.90
2022-09-28T01:44:48.956Z,55.45
2022-09-28T01:47:21.398Z,48.08
2022-09-28T01:49:54.225Z,44.35
2022-09-28T01:52:40.655Z,45.63
2022-09-28T01:55:12.506Z,47.70
2022-09-28T01:57:43.289Z,47.58
2022-09-28T02:00:13.613Z,46.97
2022-09-28T02:03:03.456Z,43.88
2022-09-28T02:05:33.500Z,44.30
2022-09-28T02:08:13.015Z,50.83
2022-09-28T02:10:44.586Z,45.92
2022-09-28T02:13:34.199Z,44.13
2022-09-28T02:16:05.879Z,43.85
2022-09-28T02:18:33.652Z,45.90
2022-09-28T02:21:29.773Z,43.08
2022-09-28T02:24:03.679Z,45.20
2022-09-28T02:26:34.855Z,45.05
2022-09-28T02:29:02.105Z,43.75
2022-09-28T02:31:29.899Z,44.00
2022-09-28T02:33:58.362Z,43.30
2022-09-28T02:36:26.808Z,41.88
2022-09-28T02:38:55.236Z,41.95
2022-09-28T02:41:40.077Z,40.22
2022-09-28T02:44:19.476Z,41.40
2022-09-28T02:46:49.444Z,40.15
2022-09-28T02:49:38.713Z,39.60
2022-09-28T02:52:33.865Z,40.35
2022-09-28T02:55:13.666Z,38.30
2022-09-28T02:58:05.392Z,38.45
2022-09-28T03:00:41.284Z,39.28
2022-09-28T03:03:10.524Z,37.53
2022-09-28T03:05:53.089Z,37.40
2022-09-28T03:08:35.783Z,37.58
2022-09-28T03:11:07.951Z,37.72
2022-09-28T03:13:36.330Z,38.55
2022-09-28T03:16:12.666Z,38.65
2022-09-28T03:18:40.516Z,38.72
2022-09-28T03:21:08.258Z,39.15
2022-09-28T03:23:36.068Z,47.50
2022-09-28T03:26:03.460Z,56.85
2022-09-28T03:28:30.715Z,36.83
2022-09-28T03:30:58.335Z,39.97
2022-09-28T03:33:25.680Z,37.78
2022-09-28T03:35:53.454Z,37.58
2022-09-28T03:38:21.317Z,38.75
2022-09-28T03:40:55.773Z,38.60
2022-09-28T03:43:26.346Z,37.70
2022-09-28T03:46:04.222Z,39.17
2022-09-28T03:48:36.144Z,39.35
2022-09-28T03:51:05.772Z,38.67
2022-09-28T03:53:33.718Z,36.88
2022-09-28T03:56:12.308Z,37.72
2022-09-28T03:58:40.984Z,38.08
2022-09-28T04:01:16.539Z,39.22
2022-09-28T04:03:45.369Z,37.72
2022-09-28T04:06:13.375Z,36.55
2022-09-28T04:08:43.101Z,37.42
2022-09-28T04:11:10.971Z,38.83
2022-09-28T04:13:38.298Z,45.85
2022-09-28T04:16:06.069Z,41.13
2022-09-28T04:18:35.392Z,38.25
2022-09-28T04:21:06.882Z,37.97
2022-09-28T04:23:35.575Z,37.80
2022-09-28T04:26:04.826Z,40.03
2022-09-28T04:28:52.380Z,41.65
2022-09-28T04:31:22.297Z,36.92
2022-09-28T04:33:50.028Z,37.55
2022-09-28T04:36:19.729Z,35.53
2022-09-28T04:38:53.109Z,39.83
2022-09-28T04:41:24.519Z,34.92
2022-09-28T04:43:52.141Z,36.97
2022-09-28T04:46:19.950Z,42.33
2022-09-28T04:48:47.329Z,36.38
2022-09-28T04:51:15.319Z,35.05
2022-09-28T04:53:42.642Z,34.33
2022-09-28T04:56:12.712Z,33.63
2022-09-28T04:58:40.362Z,30.33
2022-09-28T05:01:12.853Z,31.55
2022-09-28T05:03:40.284Z,31.42
2022-09-28T05:06:08.081Z,37.28
2022-09-28T05:08:36.269Z,30.98
2022-09-28T05:11:06.542Z,30.25
2022-09-28T05:13:40.397Z,31.20
2022-09-28T05:16:08.809Z,30.15
2022-09-28T05:18:36.466Z,32.08
2022-09-28T05:21:04.642Z,30.85
2022-09-28T05:23:34.311Z,29.80
2022-09-28T05:26:02.511Z,30.60
2022-09-28T05:28:32.949Z,32.20
2022-09-28T05:31:03.408Z,30.67
2022-09-28T05:33:33.760Z,33.50
2022-09-28T05:36:01.875Z,34.45
2022-09-28T05:38:30.492Z,36.65
2022-09-28T05:40:58.007Z,32.25
2022-09-28T05:43:25.449Z,36.40
2022-09-28T05:45:55.521Z,35.58
2022-09-28T05:48:23.559Z,36.92
2022-09-28T05:50:54.220Z,35.38
2022-09-28T05:53:21.482Z,36.22
2022-09-28T05:55:48.693Z,37.13
2022-09-28T05:58:17.128Z,35.60
2022-09-28T06:00:44.700Z,37.47
2022-09-28T06:03:13.316Z,42.40
2022-09-28T06:05:41.007Z,37.65
2022-09-28T06:08:10.619Z,36.72
2022-09-28T06:10:39.434Z,36.28
2022-09-28T06:13:07.244Z,35.00
2022-09-28T06:15:36.328Z,33.95
2022-09-28T06:18:10.068Z,35.65
2022-09-28T06:20:41.088Z,35.17
2022-09-28T06:23:09.987Z,34.50
2022-09-28T06:25:37.703Z,33.95
2022-09-28T06:28:11.380Z,29.35
2022-09-28T06:30:39.232Z,30.27
2022-09-28T06:33:08.382Z,29.15
2022-09-28T06:35:36.034Z,29.23
2022-09-28T06:38:03.516Z,31.02
2022-09-28T06:40:31.285Z,30.15
2022-09-28T06:43:06.989Z,31.52
2022-09-28T06:45:34.696Z,33.38
2022-09-28T06:48:02.283Z,35.03
2022-09-28T06:50:32.778Z,33.47
2022-09-28T06:53:01.046Z,33.47
2022-09-28T06:55:29.382Z,32.95
2022-09-28T06:58:04.913Z,32.72
2022-09-28T07:00:34.954Z,30.10
2022-09-28T07:03:06.266Z,29.15
2022-09-28T07:05:36.874Z,32.70
2022-09-28T07:08:04.964Z,28.27
2022-09-28T07:10:33.644Z,29.13
2022-09-28T07:13:04.167Z,28.10
2022-09-28T07:15:32.423Z,27.52
2022-09-28T07:18:03.490Z,26.67
2022-09-28T07:20:49.938Z,28.40
2022-09-28T07:23:19.990Z,27.08
2022-09-28T07:25:50.272Z,28.63
2022-09-28T07:28:17.557Z,28.17
2022-09-28T07:30:45.811Z,28.75
2022-09-28T07:33:15.972Z,27.67
2022-09-28T07:35:51.288Z,27.55
2022-09-28T07:38:19.087Z,28.63
2022-09-28T07:41:05.677Z,29.20
2022-09-28T07:43:35.407Z,29.60
2022-09-28T07:46:02.888Z,28.23
2022-09-28T07:48:37.823Z,27.30
2022-09-28T07:51:09.222Z,29.80
2022-09-28T07:53:38.317Z,26.52
2022-09-28T07:56:11.744Z,27.85
2022-09-28T07:58:39.744Z,26.23
2022-09-28T08:01:11.246Z,24.48
2022-09-28T08:03:39.225Z,26.35
2022-09-28T08:06:11.373Z,24.05
2022-09-28T08:08:44.624Z,25.77
2022-09-28T08:11:16.569Z,28.45
2022-09-28T08:13:45.570Z,28.45
2022-09-28T08:16:13.675Z,24.52
2022-09-28T08:18:43.570Z,25.75
2022-09-28T08:21:30.124Z,24.58
2022-09-28T08:23:59.076Z,25.73
2022-09-28T08:26:26.821Z,25.17
2022-09-28T08:28:54.249Z,22.70
2022-09-28T08:31:21.532Z,21.00
2022-09-28T08:33:53.041Z,21.77
2022-09-28T08:36:24.001Z,22.80
2022-09-28T08:38:51.557Z,23.85
2022-09-28T08:41:27.593Z,21.27
2022-09-28T08:43:57.723Z,20.95
2022-09-28T08:46:31.234Z,20.90
2022-09-28T08:49:26.359Z,21.65
2022-09-28T08:51:55.144Z,21.20
2022-09-28T08:54:59.837Z,21.40
2022-09-28T08:57:53.623Z,20.27
2022-09-28T09:00:35.359Z,21.88
2022-09-28T09:03:06.050Z,20.98
2022-09-28T09:05:58.205Z,23.35
2022-09-28T09:08:49.262Z,21.13
2022-09-28T09:11:35.250Z,20.00
2022-09-28T09:14:21.029Z,18.75
2022-09-28T09:17:04.105Z,25.13
2022-09-28T09:19:33.265Z,19.95
2022-09-28T09:22:11.448Z,19.15
2022-09-28T09:24:49.899Z,16.05
2022-09-28T09:27:38.098Z,17.65
2022-09-28T09:30:15.003Z,17.73
2022-09-28T09:33:05.630Z,18.13
2022-09-28T09:35:52.711Z,17.30
2022-09-28T09:38:52.901Z,17.17
2022-09-28T09:41:52.142Z,18.27
2022-09-28T09:45:01.852Z,19.35
2022-09-28T09:47:43.000Z,19.15
2022-09-28T09:50:29.948Z,18.90
2022-09-28T09:53:13.224Z,19.40
2022-09-28T09:55:44.672Z,18.40
2022-09-28T09:58:23.921Z,20.75
2022-09-28T10:00:52.871Z,19.35
2022-09-28T10:03:30.716Z,19.67
2022-09-28T10:06:03.920Z,19.45
2022-09-28T10:08:34.786Z,21.45
2022-09-28T10:11:10.822Z,20.98
2022-09-28T10:13:39.134Z,20.75
2022-09-28T10:16:07.812Z,21.10
2022-09-28T10:18:38.888Z,23.52
2022-09-28T10:21:06.312Z,23.73
2022-09-28T10:23:36.731Z,23.45
2022-09-28T10:26:28.704Z,21.30
2022-09-28T10:28:59.896Z,22.98
2022-09-28T10:31:38.268Z,22.92
2022-09-28T10:34:07.652Z,23.95
2022-09-28T10:36:46.373Z,23.75
2022-09-28T10:39:47.503Z,22.17
2022-09-28T10:42:21.279Z,22.35
2022-09-28T10:45:05.232Z,21.85
2022-09-28T10:47:33.653Z,23.25
2022-09-28T10:50:01.576Z,23.02
2022-09-28T10:52:32.082Z,21.65
2022-09-28T10:55:01.809Z,23.38
2022-09-28T10:57:37.240Z,22.48
2022-09-28T11:00:07.217Z,24.10
2022-09-28T11:02:37.866Z,23.17
2022-09-28T11:05:07.008Z,26.80
2022-09-28T11:07:45.932Z,23.23
2022-09-28T11:10:39.418Z,24.50
2022-09-28T11:13:09.604Z,22.77
2022-09-28T11:15:42.170Z,23.35
2022-09-28T11:18:31.538Z,23.77
2022-09-28T11:21:15.903Z,23.63
2022-09-28T11:23:55.990Z,23.98
2022-09-28T11:26:23.944Z,23.73
2022-09-28T11:28:52.871Z,23.13
2022-09-28T11:31:29.544Z,24.35
2022-09-28T11:34:13.201Z,23.48
2022-09-28T11:37:10.650Z,23.08
2022-09-28T11:39:37.885Z,23.02
2022-09-28T11:42:16.330Z,23.10
2022-09-28T11:44:48.718Z,23.92
2022-09-28T11:47:26.496Z,31.35
2022-09-28T11:50:11.994Z,22.58
2022-09-28T11:52:49.167Z,22.23
2022-09-28T11:55:34.857Z,23.33
2022-09-28T11:58:14.396Z,21.77
2022-09-28T12:00:46.609Z,23.38
2022-09-28T12:03:22.187Z,23.00
2022-09-28T12:05:52.756Z,23.20
2022-09-28T12:08:31.936Z,23.10
2022-09-28T12:11:02.902Z,22.58
2022-09-28T12:13:50.271Z,23.63
2022-09-28T12:17:00.964Z,23.48
2022-09-28T12:19:33.884Z,25.25
2022-09-28T12:22:07.648Z,23.05
2022-09-28T12:24:40.163Z,22.85
2022-09-28T12:27:10.373Z,22.52
2022-09-28T12:29:51.255Z,22.17
2022-09-28T12:32:31.012Z,22.45
2022-09-28T12:34:58.577Z,22.00
2022-09-28T12:37:58.982Z,22.15
2022-09-28T12:40:41.719Z,22.48
2022-09-28T12:43:40.670Z,22.58
2022-09-28T12:46:26.469Z,21.73
2022-09-28T12:49:51.564Z,21.48
2022-09-28T12:51:54.030Z,20.40
2022-09-28T12:54:34.633Z,23.95
2022-09-28T12:57:08.081Z,21.25
2022-09-28T12:59:39.353Z,21.20
2022-09-28T13:02:37.733Z,21.30
2022-09-28T13:05:24.562Z,20.98
2022-09-28T13:08:24.690Z,21.33
2022-09-28T13:11:08.034Z,20.60
2022-09-28T13:13:41.506Z,19.95
2022-09-28T13:16:17.696Z,20.83
2022-09-28T13:19:20.791Z,20.60
2022-09-28T13:21:59.440Z,21.10
2022-09-28T13:24:33.138Z,21.80
2022-09-28T13:27:10.381Z,21.23
2022-09-28T13:32:12.800Z,21.48
2022-09-28T13:34:40.191Z,21.85
2022-09-28T13:37:25.492Z,22.98
2022-09-28T13:40:00.196Z,21.73
2022-09-28T13:42:46.175Z,22.23
2022-09-28T13:45:22.861Z,23.25
2022-09-28T13:47:56.418Z,22.88
2022-09-28T13:50:27.690Z,23.92
2022-09-28T13:53:02.150Z,22.75
2022-09-28T13:55:48.202Z,24.88
2022-09-28T13:58:38.680Z,23.63
2022-09-28T14:01:10.647Z,24.52
2022-09-28T14:03:55.325Z,24.10
2022-09-28T14:06:33.140Z,25.98
2022-09-28T14:09:13.171Z,23.42
2022-09-28T14:11:42.563Z,25.55
2022-09-28T14:14:14.334Z,24.88
2022-09-28T14:16:42.380Z,23.60
2022-09-28T14:19:24.628Z,23.45
2022-09-28T14:21:58.322Z,24.15
2022-09-28T14:24:34.558Z,22.85
2022-09-28T14:27:27.240Z,23.10
2022-09-28T14:30:07.139Z,23.83
2022-09-28T14:32:36.552Z,22.27
2022-09-28T14:35:18.766Z,22.55
2022-09-28T14:38:07.795Z,22.23
2022-09-28T14:41:09.986Z,21.95
2022-09-28T14:43:58.729Z,23.25
2022-09-28T14:46:29.590Z,23.65
2022-09-28T14:48:57.709Z,23.20
2022-09-28T14:51:24.886Z,24.08
2022-09-28T14:54:05.797Z,24.35
2022-09-28T14:56:53.642Z,24.50
2022-09-28T14:59:30.739Z,25.65
2022-09-28T15:02:11.113Z,23.33
2022-09-28T15:04:43.963Z,24.88
2022-09-28T15:07:23.912Z,23.85
2022-09-28T15:09:54.241Z,24.58
2022-09-28T15:12:28.949Z,25.30
2022-09-28T15:15:07.070Z,25.58
2022-09-28T15:17:39.725Z,25.45
2022-09-28T15:20:30.051Z,25.70
2022-09-28T15:22:59.608Z,26.42
2022-09-28T15:25:29.991Z,27.20
2022-09-28T15:28:03.529Z,32.33
2022-09-28T15:30:36.636Z,25.73
2022-09-28T15:33:23.801Z,38.20
2022-09-28T15:36:15.231Z,24.30
2022-09-28T15:38:43.296Z,25.30
2022-09-28T15:41:11.257Z,26.80
2022-09-28T15:43:41.519Z,26.50
2022-09-28T15:46:21.168Z,27.00
2022-09-28T15:48:55.497Z,26.00
2022-09-28T15:51:25.950Z,27.25
2022-09-28T15:54:03.049Z,25.58
2022-09-28T15:56:31.172Z,26.38
2022-09-28T15:59:15.316Z,25.85
2022-09-28T16:01:43.771Z,26.67
2022-09-28T16:04:37.388Z,28.02
2022-09-28T16:07:17.825Z,31.20
2022-09-28T16:10:04.153Z,27.13
2022-09-28T16:12:42.036Z,28.33
2022-09-28T16:15:20.480Z,25.95
2022-09-28T16:17:54.444Z,28.38
2022-09-28T16:20:27.753Z,28.52
2022-09-28T16:23:05.938Z,29.77
2022-09-28T16:25:37.703Z,27.15
2022-09-28T16:28:05.985Z,27.02
2022-09-28T16:30:34.699Z,27.30
2022-09-28T16:33:11.301Z,27.02
2022-09-28T16:35:43.632Z,27.23
2022-09-28T16:38:12.379Z,24.55
2022-09-28T16:40:46.399Z,26.70
2022-09-28T16:43:27.002Z,26.55
2022-09-28T16:45:59.736Z,29.52
2022-09-28T16:48:29.216Z,31.27
2022-09-28T16:50:57.199Z,28.98
2022-09-28T16:53:43.096Z,31.08
2022-09-28T16:56:11.272Z,30.88
2022-09-28T16:58:39.264Z,36.95
2022-09-28T17:01:10.131Z,30.60
2022-09-28T17:03:37.681Z,28.67
2022-09-28T17:06:06.387Z,23.55
2022-09-28T17:08:36.155Z,21.70
2022-09-28T17:11:24.706Z,21.05
2022-09-28T17:13:59.082Z,21.00
2022-09-28T17:16:59.937Z,22.15
2022-09-28T17:19:23.247Z,17.88
2022-09-28T17:21:51.802Z,19.33
2022-09-28T17:24:19.544Z,17.85
2022-09-28T17:26:49.061Z,16.05
2022-09-28T17:29:22.336Z,16.27
2022-09-28T17:31:50.318Z,16.58
2022-09-28T17:34:17.931Z,17.67
2022-09-28T17:36:45.433Z,18.27
2022-09-28T17:39:14.439Z,18.10
2022-09-28T17:41:42.099Z,16.73
2022-09-28T17:44:09.651Z,17.05
2022-09-28T17:46:39.617Z,16.30
2022-09-28T17:49:07.949Z,16.58
2022-09-28T17:51:37.687Z,16.00
2022-09-28T17:54:06.169Z,16.00
2022-09-28T17:56:34.133Z,14.13
2022-09-28T17:59:07.131Z,15.48
2022-09-28T18:01:35.061Z,15.25
2022-09-28T18:04:05.083Z,14.68
2022-09-28T18:06:33.845Z,15.30
2022-09-28T18:09:05.021Z,15.50
2022-09-28T18:11:33.311Z,14.70
2022-09-28T18:14:00.863Z,14.75
2022-09-28T18:16:28.969Z,15.38
2022-09-28T18:18:58.327Z,14.43
2022-09-28T18:21:25.631Z,15.20
2022-09-28T18:23:52.848Z,14.88
2022-09-28T18:26:20.146Z,15.27
2022-09-28T18:28:47.545Z,14.93
2022-09-28T18:31:15.981Z,15.27
2022-09-28T18:33:43.499Z,15.43
2022-09-28T18:36:10.960Z,15.07
2022-09-28T18:38:47.941Z,15.13
2022-09-28T18:41:16.148Z,15.18
2022-09-28T18:43:49.199Z,15.43
2022-09-28T18:46:18.372Z,14.65
2022-09-28T18:48:47.917Z,15.05
2022-09-28T18:51:15.211Z,15.07
2022-09-28T18:53:43.438Z,14.68
2022-09-28T18:56:13.088Z,14.20
2022-09-28T18:58:41.817Z,13.73
2022-09-28T19:04:00.717Z,13.00
2022-09-28T19:06:28.330Z,14.25
2022-09-28T19:08:56.443Z,14.52
2022-09-28T19:11:24.936Z,14.30
2022-09-28T19:13:53.780Z,14.35
2022-09-28T19:16:25.591Z,13.65
2022-09-28T19:18:53.722Z,13.57
2022-09-28T19:21:21.372Z,14.63
2022-09-28T19:23:49.710Z,14.45
2022-09-28T19:26:22.539Z,14.23
2022-09-28T19:28:50.383Z,14.65
2022-09-28T19:31:17.940Z,15.35
2022-09-28T19:33:46.444Z,15.02
2022-09-28T19:36:19.457Z,14.93
2022-09-28T19:38:46.786Z,15.10
2022-09-28T19:41:39.184Z,15.43
2022-09-28T19:44:27.447Z,14.52
2022-09-28T19:47:10.211Z,15.40
2022-09-28T19:49:39.987Z,15.50
2022-09-28T19:52:13.785Z,15.85
2022-09-28T19:54:44.566Z,16.48
2022-09-28T19:57:13.454Z,14.93
2022-09-28T19:59:40.860Z,15.10
2022-09-28T20:02:10.467Z,16.88
2022-09-28T20:04:40.649Z,15.57
2022-09-28T20:07:08.048Z,14.40
2022-09-28T20:09:38.269Z,13.80
2022-09-28T20:12:06.078Z,14.25
2022-09-28T20:14:37.982Z,15.32
2022-09-28T20:17:07.254Z,14.40
2022-09-28T20:19:35.080Z,14.93
2022-09-28T20:22:02.836Z,14.57
2022-09-28T20:24:31.349Z,14.85
2022-09-28T20:26:58.948Z,16.20
2022-09-28T20:29:26.834Z,14.98
2022-09-28T20:31:54.205Z,15.38
2022-09-28T20:34:21.522Z,15.27
2022-09-28T20:36:48.671Z,14.13
2022-09-28T20:39:16.292Z,13.57
2022-09-28T20:41:43.849Z,14.73
2022-09-28T20:44:11.143Z,14.45
2022-09-28T20:46:38.416Z,13.98
2022-09-28T20:49:07.099Z,14.23
2022-09-28T20:51:34.503Z,14.65
2022-09-28T20:54:01.696Z,14.90
2022-09-28T20:56:37.797Z,14.98
2022-09-28T20:59:10.802Z,14.43
2022-09-28T21:01:38.798Z,14.80
2022-09-28T21:04:08.170Z,14.18
2022-09-28T21:06:38.435Z,15.80
2022-09-28T21:09:06.842Z,15.05
2022-09-28T21:11:35.707Z,15.05
2022-09-28T21:14:06.615Z,15.35
2022-09-28T21:16:35.570Z,15.85
2022-09-28T21:19:03.718Z,16.52
2022-09-28T21:21:31.458Z,16.85
2022-09-28T21:23:58.949Z,17.35
2022-09-28T21:26:28.441Z,17.20
2022-09-28T21:29:06.327Z,17.38
2022-09-28T21:31:41.501Z,17.80
2022-09-28T21:34:13.496Z,18.50
2022-09-28T21:36:43.553Z,20.33
2022-09-28T21:39:11.165Z,21.08
2022-09-28T21:41:38.408Z,21.50
2022-09-28T21:44:06.942Z,22.23
2022-09-28T21:46:35.484Z,22.83
2022-09-28T21:49:04.721Z,24.38
2022-09-28T21:51:32.891Z,22.58
2022-09-28T21:54:00.038Z,24.27
2022-09-28T21:56:27.877Z,22.77
2022-09-28T21:58:55.351Z,21.73
2022-09-28T22:01:25.750Z,30.85
2022-09-28T22:03:56.205Z,29.73
2022-09-28T22:06:27.997Z,41.03
2022-09-28T22:08:55.539Z,24.48
2022-09-28T22:11:24.468Z,22.35
2022-09-28T22:13:55.029Z,21.52
2022-09-28T22:16:24.009Z,23.48
2022-09-28T22:18:53.557Z,21.60
2022-09-28T22:21:23.899Z,21.83
2022-09-28T22:23:51.512Z,22.20
2022-09-28T22:26:24.799Z,22.42
2022-09-28T22:28:56.853Z,21.48
2022-09-28T22:31:27.247Z,22.75
2022-09-28T22:33:55.020Z,21.63
2022-09-28T22:36:22.560Z,20.67
2022-09-28T22:38:50.371Z,21.55
2022-09-28T22:41:20.934Z,41.63
2022-09-28T22:43:49.900Z,22.77
2022-09-28T22:46:19.837Z,22.33
2022-09-28T22:48:49.188Z,21.88
2022-09-28T22:51:16.992Z,23.40
2022-09-28T22:53:44.305Z,22.77
2022-09-28T22:56:18.442Z,22.23
2022-09-28T22:58:47.250Z,23.15
2022-09-28T23:01:15.599Z,22.08
2022-09-28T23:03:44.859Z,21.38
2022-09-28T23:06:14.997Z,22.38
2022-09-28T23:08:44.503Z,23.02
2022-09-28T23:11:12.086Z,21.02
2022-09-28T23:13:39.789Z,23.02
2022-09-28T23:16:09.199Z,20.23
2022-09-28T23:18:38.515Z,20.85
2022-09-28T23:21:07.867Z,21.55
2022-09-28T23:23:35.383Z,21.50
2022-09-28T23:26:27.064Z,21.60
2022-09-28T23:28:54.640Z,20.48
2022-09-28T23:31:24.333Z,24.67
2022-09-28T23:33:52.372Z,19.67
2022-09-28T23:36:20.589Z,24.23
2022-09-28T23:38:47.975Z,19.83
2022-09-28T23:41:17.280Z,21.65
2022-09-28T23:43:45.183Z,45.95
2022-09-28T23:46:14.490Z,54.35
2022-09-28T23:48:43.428Z,20.48
2022-09-28T23:51:10.674Z,22.98
2022-09-28T23:53:38.290Z,26.23
2022-09-28T23:56:05.801Z,23.95
2022-09-28T23:58:33.073Z,22.02
